x

Virginia Beach 64 Nm East Of Virginia Beach, Va (44014) Wave Buoy

8:50 - Sat 25th Apr 2015 All times are EDT. -4 hours from GMT.

  • Sig Wave height 2.6ft
  • Swell Direction
  • Peak Period 7s
  • Average Period 4s
  • Wind
    20mph, 22mph gusts
  • Sea Temp 59°f
  • Luft Temp 51°f
  • Sea Pressure 1005.5mb
  • Virginia Beach 64 Nm East Of Virginia Beach, Va
  • Virginia Beach 64 Nm East Of Virginia Beach, Va

More Historic Weather Station data

Upgrade to MSW Pro to gain access to the past 30 days of data for over 8000 Wavebouys and Weather Stations around the globe.

Join Pro

Comparision Forecast

View Surf forecast
   
Sa 04/25 8:50 2.5ft 7s 4s 20 22 mph 1005.5mb 59f 51f
7:50 2.5ft 7s 5s 13 18 mph 1007.1mb 59f 51f
6:50 2.5ft 7s 5s 16 18 mph 1008mb 59f 50f
5:50 2.5ft 7s 5s 16 18 mph 1008.3mb 58f 52f
4:50 2.5ft 5s 5s 11 13 mph 1008.8mb 58f 53f
3:50 2.5ft 5s 5s 11 13 mph 1009.6mb 59f 54f
2:50 2ft 5s 5s 9 11 mph 1010.8mb 59f 54f
1:50 1.6ft 12s 5s 7 9 mph 1012mb 59f 55f
12:50 1.6ft 11s 5s 9 11 mph 1012.6mb 59f 54f
11:50 1.6ft 12s 5s 11 16 mph 1013.3mb 59f 55f
10:50 1.6ft 13s 5s 7 9 mph 1014.4mb 59f 55f
9:50 1.6ft 12s 5s 9 11 mph 1013.4mb 60f 54f
8:50 1.6ft 13s 6s 11 13 mph 1013.4mb 60f 55f
7:50 1.6ft 6s 5s 9 11 mph 1013.6mb 60f 57f
6:50 1.6ft 13s 6s 4 7 mph 1013.6mb 60f 57f
5:50 1.6ft 12s 5s 4
mph
1013.1mb 61f 57f
4:50 2ft 14s 5s 9
mph
1013.3mb 62f 57f
3:50 2ft 14s 5s 9 11 mph 1013.5mb 62f 56f
2:50 2ft 14s 4s 9 11 mph 1013.7mb 62f 55f
1:50 2.5ft 14s 5s 11 13 mph 1014mb 62f 55f
12:50 2.5ft 6s 5s 11 13 mph 1014.5mb 63f 55f
Fr 04/24 11:50 3ft 6s 5s 9 11 mph 1014.6mb 63f 54f
10:50 3ft 5s 5s 4 7 mph 1014.7mb 63f 55f
9:50 3.5ft 6s 5s 4 7 mph 1014.7mb 63f 54f
8:50 4.5ft 6s 5s 7 9 mph 1014.3mb 63f 54f
7:50 5ft 7s 5s 13 16 mph 1013.5mb 63f 53f
6:50 5.5ft 6s 5s 13 16 mph 1013.6mb 63f 53f
5:50 5.5ft 7s 5s 16 18 mph 1013.7mb 63f 52f
4:50 6ft 7s 5s 18 22 mph 1013.8mb 63f 51f
3:50 6ft 7s 5s 18 20 mph 1014mb 60f 50f
2:50 7ft 7s 5s 22 27 mph 1014.1mb 59f 49f
1:50 6.5ft 7s 5s 22 31 mph 1014.7mb 59f 48f
12:50 6ft 6s 5s 25 31 mph 1014.9mb 59f 48f
11:50 5.5ft 5s 5s 25 31 mph 1015.1mb 59f 47f
10:50 5.5ft 6s 5s 27 31 mph 1014.4mb 58f 47f
9:50 5ft 5s 4s 27 34 mph 1014.5mb 57f 48f
8:50 4.5ft 5s 4s 27 31 mph 1014.5mb 55f 49f
7:50 4.5ft 5s 5s 22 27 mph 1014.4mb 55f 50f
6:50 4.5ft 5s 4s 22 27 mph 1013.6mb 55f 51f
5:50 4.5ft 14s 5s 22 27 mph 1012.8mb 54f 51f
4:50 4ft 4s 4s 22 25 mph 1012.3mb 54f 51f
3:50 3.5ft 15s 5s 25 29 mph 1012.1mb 54f 52f
2:50 3.5ft 14s 7s 13 16 mph 1011.6mb 54f 54f
1:50 3.5ft 14s 7s 7 9 mph 1011.3mb 55f 54f
12:50 3ft 15s 7s 2
mph
1011.2mb 55f 55f
Do 04/23 11:50 3.5ft 14s 7s 2 4 mph 1011.1mb 55f 55f
10:50 3ft 14s 7s 9
mph
1011mb 56f 55f
9:50 3.5ft 14s 7s 11 13 mph 1011mb 56f 55f
8:50 3.5ft 14s 7s 11
mph
1011mb 56f 54f
7:50 3.5ft 15s 7s 9
mph
1010.8mb 56f 53f
6:50 3.5ft 14s 6s 7 9 mph 1010.7mb 57f 53f
5:50 3.5ft 14s 6s 2 4 mph 1010.6mb 57f 53f
4:50 3.5ft 15s 6s 2 4 mph 1010.2mb 57f 53f
3:50 4ft 12s 6s 4
mph
1010.3mb 56f 53f
2:50 4ft 7s 6s 2 4 mph 1010.9mb 56f 52f
1:50 4.5ft 6s 6s 7 9 mph 1011.3mb 55f 51f
12:50 5ft 6s 6s 9 11 mph 1011.7mb 54f 51f
11:50 5ft 6s 5s 13 16 mph 1012mb 53f 51f
10:50 5ft 6s 5s 16 20 mph 1012mb 53f 51f
9:50 5.5ft 6s 5s 20 25 mph 1011.7mb 53f 51f
8:50 5ft 7s 5s 20 25 mph 1011.7mb 53f 52f
7:50 5ft 6s 5s 20 25 mph 1011.1mb 53f 52f
6:50 5ft 8s 5s 20 25 mph 1010.2mb 54f 53f
5:50 5ft 7s 5s 22 27 mph 1008.6mb 55f 54f
4:50 5ft 5s 5s 20 25 mph 1008.2mb 55f 55f
3:50 5ft 5s 5s 20 22 mph 1007.8mb 55f 56f
2:50 4.5ft 4s 5s 20 22 mph 1007.3mb 56f 56f
1:50 3.5ft 6s 5s 20 25 mph 1006.4mb 56f 57f
12:50 4.5ft 5s 5s 20 25 mph 1005.9mb 56f 63f
Mi 04/22 11:50 4.5ft 5s 5s 25 27 mph 1004.6mb 56f 62f
10:50 4.5ft 5s 5s 22 27 mph 1005mb 56f 62f
9:50 4.5ft 4s 4s 22 27 mph 1005.4mb 55f 62f
8:50 4ft 9s 5s 22 25 mph 1005.8mb 55f 62f
7:50 3.5ft 9s 5s 18 20 mph 1006mb 55f 61f
6:50 3.5ft 10s 5s 20 22 mph 1006mb 56f 62f
5:50 3.5ft 11s 5s 16 18 mph 1006mb 57f 62f
4:50 3.5ft 11s 5s 18 20 mph 1006.7mb 57f 62f
3:50 3ft 9s 6s 16 18 mph 1006.7mb 58f 62f
2:50 3.5ft 11s 6s 11 13 mph 1007.8mb 58f 60f
1:50 3.5ft 8s 7s 9 11 mph 1008.9mb 58f 59f
12:50 3.5ft 9s 7s 7
mph
1010.1mb 57f 59f
11:50 3.5ft 11s 7s 7 9 mph 1010.7mb 57f 58f
10:50 3.5ft 11s 7s 4 7 mph 1011.2mb 57f 58f
9:50 3.5ft 10s 7s 7
mph
1011.7mb 56f 57f
8:50 3.5ft 8s 7s 7 9 mph 1011.9mb 56f 57f
7:50 3.5ft 9s 7s 7 9 mph 1011.9mb 57f 57f
6:50 3.5ft 8s 7s 9 11 mph 1011.7mb 57f 57f
5:50 3.5ft 8s 7s 11 13 mph 1011.3mb 57f 58f
4:50 3.5ft 10s 7s 9 11 mph 1010.9mb 58f 58f
3:50 3.5ft 10s 7s 9 11 mph 1010.7mb 58f 59f
2:50 3.5ft 8s 7s 9 11 mph 1010.6mb 59f 59f
1:50 3.5ft 8s 7s 7 9 mph 1010.8mb 59f 59f